Chatelet, Belgium
Current Conditions -  °F | °C
As of 1:20 PM on Monday 20 Oct 2014 (Local Time) from EBCI Reporting Station
Broken Clouds Broken Clouds  
Wind Chill: 59°   Ceiling: 3200
Heat Index: 59°   Visibility: 6mi
Dew Point: 52°   Wind: 13mph
Humidity: 77%   Direction: 250°WSW
Pressure: 30.09"   Gusts: NA
Location:  50.4°N, 4.53°E
Report Text: EBCI 201120Z 25011KT 9999 SCT016 BKN032 15/11 Q1019 NOSIG
Loading
Personal Weather Stations






























Interactive Weather Map
Tropical Storm Tracking
New forecast layout! Learn more

10-Day Weather Forecast

Advertisements
Track Severe Weather on mobile